createdAt,value
2018-08-09T00:01:29.991Z,100851.22
2018-08-09T00:03:59.076Z,100844.95
2018-08-09T00:06:28.234Z,100840.31
2018-08-09T00:08:57.405Z,100840.02
2018-08-09T00:11:26.786Z,100835.13
2018-08-09T00:13:58.129Z,100834.54
2018-08-09T00:16:27.373Z,100832.10
2018-08-09T00:18:56.461Z,100834.01
2018-08-09T00:21:25.293Z,100826.95
2018-08-09T00:23:54.385Z,100830.69
2018-08-09T00:26:23.487Z,100839.06
2018-08-09T00:28:52.655Z,100839.79
2018-08-09T00:31:21.476Z,100841.70
2018-08-09T00:33:51.940Z,100835.69
2018-08-09T00:36:20.906Z,100838.16
2018-08-09T00:38:53.085Z,100829.48
2018-08-09T00:41:22.240Z,100830.84
2018-08-09T00:43:51.129Z,100836.52
2018-08-09T00:46:19.920Z,100838.98
2018-08-09T00:48:48.687Z,100834.10
2018-08-09T00:51:17.662Z,100833.56
2018-08-09T00:53:46.593Z,100831.09
2018-08-09T00:56:15.413Z,100831.38
2018-08-09T00:58:44.300Z,100831.09
2018-08-09T01:01:13.613Z,100832.74
2018-08-09T01:03:42.415Z,100831.91
2018-08-09T01:06:11.488Z,100837.63
2018-08-09T01:08:44.386Z,100834.30
2018-08-09T01:11:13.183Z,100834.26
2018-08-09T01:13:41.980Z,100832.84
2018-08-09T01:16:10.832Z,100827.09
2018-08-09T01:18:39.662Z,100830.32
2018-08-09T01:21:08.537Z,100822.98
2018-08-09T01:23:37.429Z,100821.61
2018-08-09T01:26:06.206Z,100816.14
2018-08-09T01:28:35.034Z,100821.73
2018-08-09T01:31:03.866Z,100819.42
2018-08-09T01:33:33.133Z,100822.84
2018-08-09T01:36:02.134Z,100818.46
2018-08-09T01:38:31.028Z,100823.25
2018-08-09T01:40:59.883Z,100818.58
2018-08-09T01:43:39.698Z,100812.84
2018-08-09T01:46:08.833Z,100818.44
2018-08-09T01:48:37.617Z,100806.13
2018-08-09T01:51:06.544Z,100803.61
2018-08-09T01:53:35.346Z,100803.70
2018-08-09T01:56:04.190Z,100805.34
2018-08-09T01:58:32.949Z,100809.63
2018-08-09T02:01:01.778Z,100806.80
2018-08-09T02:03:30.555Z,100809.42
2018-08-09T02:05:59.645Z,100811.14
2018-08-09T02:08:28.353Z,100810.09
2018-08-09T02:10:57.206Z,100802.92
2018-08-09T02:13:26.000Z,100797.97
2018-08-09T02:15:54.856Z,100797.22
2018-08-09T02:18:23.681Z,100795.75
2018-08-09T02:20:52.936Z,100800.81
2018-08-09T02:23:21.605Z,100793.76
2018-08-09T02:25:50.660Z,100804.20
2018-08-09T02:28:19.514Z,100801.62
2018-08-09T02:30:48.307Z,100796.48
2018-08-09T02:33:17.226Z,100791.30
2018-08-09T02:35:46.169Z,100794.18
2018-08-09T02:38:15.082Z,100793.48
2018-08-09T02:40:43.912Z,100800.87
2018-08-09T02:43:12.917Z,100801.43
2018-08-09T02:45:41.762Z,100798.28
2018-08-09T02:48:10.510Z,100800.23
2018-08-09T02:50:39.352Z,100788.59
2018-08-09T02:53:09.394Z,100791.67
2018-08-09T02:55:39.491Z,100781.80
2018-08-09T02:58:08.759Z,100775.17
2018-08-09T03:00:37.532Z,100787.22
2018-08-09T03:03:06.306Z,100780.84
2018-08-09T03:05:35.507Z,100791.53
2018-08-09T03:08:04.469Z,100779.06
2018-08-09T03:10:37.023Z,100770.86
2018-08-09T03:13:05.734Z,100769.67
2018-08-09T03:15:34.609Z,100772.89
2018-08-09T03:18:03.418Z,100778.64
2018-08-09T03:20:32.409Z,100787.86
2018-08-09T03:23:01.213Z,100774.97
2018-08-09T03:25:30.197Z,100772.87
2018-08-09T03:27:58.993Z,100785.81
2018-08-09T03:30:31.813Z,100783.62
2018-08-09T03:33:01.062Z,100770.31
2018-08-09T03:35:30.202Z,100784.92
2018-08-09T03:37:59.306Z,100777.34
2018-08-09T03:40:29.049Z,100774.33
2018-08-09T03:42:58.173Z,100773.34
2018-08-09T03:45:27.254Z,100770.29
2018-08-09T03:47:56.214Z,100773.66
2018-08-09T03:50:25.031Z,100777.94
2018-08-09T03:52:53.861Z,100778.30
2018-08-09T03:55:22.612Z,100773.28
2018-08-09T03:57:51.373Z,100778.37
2018-08-09T04:00:20.178Z,100772.73
2018-08-09T04:02:49.382Z,100774.86
2018-08-09T04:05:18.181Z,100777.53
2018-08-09T04:07:47.037Z,100775.36
2018-08-09T04:10:16.076Z,100784.64
2018-08-09T04:12:45.339Z,100780.56
2018-08-09T04:15:14.104Z,100770.24
2018-08-09T04:17:43.349Z,100756.70
2018-08-09T04:20:12.296Z,100762.45
2018-08-09T04:22:41.279Z,100770.59
2018-08-09T04:25:10.406Z,100780.57
2018-08-09T04:27:39.297Z,100779.00
2018-08-09T04:30:08.249Z,100771.00
2018-08-09T04:32:37.181Z,100779.61
2018-08-09T04:35:06.139Z,100781.48
2018-08-09T04:37:35.057Z,100787.64
2018-08-09T04:40:03.890Z,100789.48
2018-08-09T04:42:32.685Z,100786.43
2018-08-09T04:45:01.894Z,100790.31
2018-08-09T04:47:30.710Z,100789.58
2018-08-09T04:49:59.617Z,100795.89
2018-08-09T04:52:28.510Z,100789.52
2018-08-09T04:54:57.357Z,100792.42
2018-08-09T04:57:26.167Z,100799.24
2018-08-09T04:59:55.092Z,100809.12
2018-08-09T05:02:24.151Z,100802.44
2018-08-09T05:04:53.094Z,100804.34
2018-08-09T05:07:22.072Z,100799.19
2018-08-09T05:09:51.600Z,100791.84
2018-08-09T05:12:21.452Z,100792.31
2018-08-09T05:14:50.197Z,100783.81
2018-08-09T05:17:19.018Z,100784.25
2018-08-09T05:19:48.541Z,100781.93
2018-08-09T05:22:17.347Z,100788.30
2018-08-09T05:24:46.231Z,100788.96
2018-08-09T05:27:15.193Z,100786.34
2018-08-09T05:29:43.971Z,100783.98
2018-08-09T05:32:13.154Z,100783.51
2018-08-09T05:34:41.951Z,100783.27
2018-08-09T05:37:10.797Z,100774.88
2018-08-09T05:39:39.923Z,100767.06
2018-08-09T05:42:08.979Z,100764.65
2018-08-09T05:44:37.736Z,100767.09
2018-08-09T05:47:06.888Z,100758.94
2018-08-09T05:49:35.820Z,100745.09
2018-08-09T05:52:04.643Z,100739.91
2018-08-09T05:54:33.568Z,100739.91
2018-08-09T05:57:02.374Z,100749.97
2018-08-09T05:59:31.141Z,100754.87
2018-08-09T06:02:00.030Z,100747.53
2018-08-09T06:04:28.849Z,100737.47
2018-08-09T06:06:57.573Z,100745.09
2018-08-09T06:09:26.428Z,100738.52
2018-08-09T06:11:55.285Z,100736.92
2018-08-09T06:14:24.205Z,100742.88
2018-08-09T06:16:53.071Z,100741.22
2018-08-09T06:19:21.881Z,100740.13
2018-08-09T06:21:50.703Z,100743.68
2018-08-09T06:24:19.576Z,100746.41
2018-08-09T06:26:48.435Z,100747.50
2018-08-09T06:29:17.189Z,100748.86
2018-08-09T06:31:45.943Z,100740.40
2018-08-09T06:34:14.830Z,100742.55
2018-08-09T06:36:43.713Z,100749.33
2018-08-09T06:39:12.581Z,100742.47
2018-08-09T06:41:41.357Z,100729.36
2018-08-09T06:44:10.301Z,100730.62
2018-08-09T06:46:39.230Z,100725.85
2018-08-09T06:49:08.174Z,100731.19
2018-08-09T06:51:36.977Z,100727.30
2018-08-09T06:54:05.866Z,100723.92
2018-08-09T06:56:34.650Z,100726.91
2018-08-09T06:59:03.705Z,100731.63
2018-08-09T07:01:32.587Z,100729.44
2018-08-09T07:04:01.399Z,100722.38
2018-08-09T07:06:30.186Z,100717.84
2018-08-09T07:08:59.074Z,100711.90
2018-08-09T07:11:27.811Z,100705.34
2018-08-09T07:13:56.582Z,100692.24
2018-08-09T07:16:25.392Z,100685.83
2018-08-09T07:18:54.235Z,100686.12
2018-08-09T07:21:22.978Z,100693.47
2018-08-09T07:23:51.825Z,100688.37
2018-08-09T07:26:20.734Z,100695.51
2018-08-09T07:28:49.666Z,100695.29
2018-08-09T07:31:18.423Z,100700.02
2018-08-09T07:33:47.209Z,100701.16
2018-08-09T07:36:16.017Z,100695.59
2018-08-09T07:38:44.793Z,100697.80
2018-08-09T07:41:13.556Z,100695.09
2018-08-09T07:43:42.398Z,100701.11
2018-08-09T07:46:11.256Z,100707.94
2018-08-09T07:48:40.247Z,100706.30
2018-08-09T07:51:09.139Z,100694.57
2018-08-09T07:53:38.118Z,100689.25
2018-08-09T07:56:06.878Z,100693.33
2018-08-09T07:58:35.714Z,100688.20
2018-08-09T08:01:04.472Z,100692.58
2018-08-09T08:03:33.295Z,100690.13
2018-08-09T08:06:02.108Z,100693.08
2018-08-09T08:08:31.017Z,100688.84
2018-08-09T08:10:59.938Z,100683.55
2018-08-09T08:13:28.650Z,100687.30
2018-08-09T08:15:57.531Z,100677.48
2018-08-09T08:18:26.316Z,100672.94
2018-08-09T08:20:55.113Z,100659.58
2018-08-09T08:23:24.977Z,100646.83
2018-08-09T08:25:53.832Z,100633.39
2018-08-09T08:28:22.607Z,100619.52
2018-08-09T08:30:51.348Z,100614.03
2018-08-09T08:33:21.242Z,100628.14
2018-08-09T08:35:50.169Z,100629.64
2018-08-09T08:38:19.430Z,100615.89
2018-08-09T08:40:48.758Z,100617.20
2018-08-09T08:43:18.894Z,100615.08
2018-08-09T08:45:47.961Z,100611.19
2018-08-09T08:48:16.731Z,100605.09
2018-08-09T08:50:45.732Z,100603.45
2018-08-09T08:53:15.675Z,100598.47
2018-08-09T08:55:44.433Z,100590.22
2018-08-09T08:58:15.572Z,100587.70
2018-08-09T09:00:45.242Z,100578.97
2018-08-09T09:03:14.505Z,100578.63
2018-08-09T09:05:44.890Z,100561.05
2018-08-09T09:08:13.904Z,100566.68
2018-08-09T09:10:43.301Z,100556.01
2018-08-09T09:13:19.306Z,100542.52
2018-08-09T09:15:48.154Z,100535.87
2018-08-09T09:18:19.246Z,100533.55
2018-08-09T09:20:48.525Z,100525.72
2018-08-09T09:23:26.697Z,100508.98
2018-08-09T09:25:57.388Z,100512.89
2018-08-09T09:28:33.226Z,100523.68
2018-08-09T09:31:02.832Z,100511.92
2018-08-09T09:33:33.689Z,100514.27
2018-08-09T09:36:02.789Z,100510.38
2018-08-09T09:38:31.563Z,100511.84
2018-08-09T09:41:00.526Z,100514.95
2018-08-09T09:43:30.857Z,100511.45
2018-08-09T09:45:59.817Z,100495.63
2018-08-09T09:48:28.937Z,100500.50
2018-08-09T09:51:00.373Z,100495.11
2018-08-09T09:53:46.605Z,100489.78
2018-08-09T09:56:15.492Z,100482.56
2018-08-09T09:58:44.430Z,100482.25
2018-08-09T10:01:19.177Z,100480.41
2018-08-09T10:03:56.379Z,100467.92
2018-08-09T10:06:25.242Z,100466.45
2018-08-09T10:08:55.112Z,100454.84
2018-08-09T10:11:24.009Z,100445.22
2018-08-09T10:13:58.493Z,100438.00
2018-08-09T10:16:27.609Z,100436.05
2018-08-09T10:18:57.329Z,100433.45
2018-08-09T10:21:26.118Z,100417.27
2018-08-09T10:23:54.950Z,100415.81
2018-08-09T10:26:23.768Z,100398.43
2018-08-09T10:28:52.623Z,100399.59
2018-08-09T10:31:21.632Z,100394.50
2018-08-09T10:33:50.491Z,100385.20
2018-08-09T10:36:19.268Z,100371.96
2018-08-09T10:38:48.040Z,100374.47
2018-08-09T10:41:16.926Z,100357.16
2018-08-09T10:43:50.897Z,100352.98
2018-08-09T10:46:19.720Z,100345.07
2018-08-09T10:48:48.561Z,100335.50
2018-08-09T10:51:17.340Z,100338.03
2018-08-09T10:53:49.282Z,100331.83
2018-08-09T10:56:18.176Z,100322.63
2018-08-09T10:58:46.986Z,100319.48
2018-08-09T11:01:16.220Z,100316.50
2018-08-09T11:03:47.269Z,100323.03
2018-08-09T11:06:16.520Z,100320.55
2018-08-09T11:08:45.347Z,100319.39
2018-08-09T11:11:15.489Z,100314.19
2018-08-09T11:13:45.683Z,100305.45
2018-08-09T11:16:15.505Z,100297.41
2018-08-09T11:18:45.280Z,100288.73
2018-08-09T11:21:14.530Z,100287.59
2018-08-09T11:23:43.454Z,100278.56
2018-08-09T11:26:20.325Z,100265.14
2018-08-09T11:28:49.093Z,100268.77
2018-08-09T11:31:17.948Z,100260.27
2018-08-09T11:33:46.721Z,100250.94
2018-08-09T11:36:15.521Z,100250.87
2018-08-09T11:38:44.277Z,100244.14
2018-08-09T11:41:13.562Z,100237.72
2018-08-09T11:43:42.294Z,100227.36
2018-08-09T11:46:11.446Z,100220.61
2018-08-09T11:48:40.291Z,100209.90
2018-08-09T11:51:12.187Z,100203.66
2018-08-09T11:53:41.037Z,100203.01
2018-08-09T11:56:19.095Z,100192.76
2018-08-09T11:58:47.835Z,100193.10
2018-08-09T12:01:16.608Z,100181.91
2018-08-09T12:03:45.401Z,100179.82
2018-08-09T12:06:16.257Z,100175.07
2018-08-09T12:08:45.049Z,100171.87
2018-08-09T12:11:14.861Z,100159.97
2018-08-09T12:13:44.704Z,100154.47
2018-08-09T12:16:13.955Z,100145.16
2018-08-09T12:18:43.052Z,100133.28
2018-08-09T12:21:11.943Z,100129.77
2018-08-09T12:23:40.794Z,100127.08
2018-08-09T12:26:20.274Z,100104.30
2018-08-09T12:28:49.123Z,100092.91
2018-08-09T12:31:22.773Z,100079.45
2018-08-09T12:33:51.953Z,100085.71
2018-08-09T12:36:28.706Z,100075.38
2018-08-09T12:38:57.714Z,100067.92
2018-08-09T12:41:26.927Z,100070.53
2018-08-09T12:43:55.929Z,100058.55
2018-08-09T12:46:33.607Z,100052.53
2018-08-09T12:49:02.507Z,100053.56
2018-08-09T12:51:31.427Z,100033.22
2018-08-09T12:54:00.224Z,100035.67
2018-08-09T12:56:29.845Z,100028.27
2018-08-09T12:58:59.059Z,100013.30
2018-08-09T13:01:27.910Z,100013.45
2018-08-09T13:03:56.650Z,100017.43
2018-08-09T13:06:42.841Z,100015.02
2018-08-09T13:09:12.447Z,100015.06
2018-08-09T13:11:41.919Z,100003.52
2018-08-09T13:14:10.757Z,99988.85
2018-08-09T13:16:39.632Z,99987.59
2018-08-09T13:19:08.760Z,99974.75
2018-08-09T13:21:40.941Z,99981.73
2018-08-09T13:24:09.673Z,99980.63
2018-08-09T13:26:38.821Z,99965.03
2018-08-09T13:29:07.632Z,99963.25
2018-08-09T13:31:36.478Z,99951.46
2018-08-09T13:34:05.438Z,99949.59
2018-08-09T13:36:35.302Z,99933.94
2018-08-09T13:39:05.190Z,99918.30
2018-08-09T13:41:33.917Z,99914.03
2018-08-09T13:44:02.722Z,99905.28
2018-08-09T13:46:31.519Z,99893.66
2018-08-09T13:49:00.273Z,99882.27
2018-08-09T13:51:29.090Z,99876.47
2018-08-09T13:53:57.861Z,99874.93
2018-08-09T13:56:47.096Z,99874.73
2018-08-09T13:59:16.113Z,99860.62
2018-08-09T14:01:44.962Z,99832.97
2018-08-09T14:04:13.871Z,99840.47
2018-08-09T14:06:42.638Z,99848.97
2018-08-09T14:09:13.778Z,99852.05
2018-08-09T14:11:43.319Z,99841.44
2018-08-09T14:14:12.708Z,99837.67
2018-08-09T14:16:45.766Z,99872.97
2018-08-09T14:19:14.689Z,99912.59
2018-08-09T14:21:43.445Z,99963.02
2018-08-09T14:24:12.247Z,99993.08
2018-08-09T14:26:43.117Z,100009.21
2018-08-09T14:29:11.925Z,100013.33
2018-08-09T14:31:40.710Z,99970.59
2018-08-09T14:34:09.455Z,99971.47
2018-08-09T14:36:41.829Z,99986.28
2018-08-09T14:39:11.753Z,100005.36
2018-08-09T14:41:40.537Z,100017.17
2018-08-09T14:44:09.704Z,100017.23
2018-08-09T14:46:45.834Z,100025.17
2018-08-09T14:49:14.594Z,100052.52
2018-08-09T14:51:43.359Z,100049.92
2018-08-09T14:54:12.202Z,100043.34
2018-08-09T14:56:43.130Z,100042.28
2018-08-09T14:59:12.141Z,100048.89
2018-08-09T15:01:40.989Z,100045.11
2018-08-09T15:04:09.961Z,100028.13
2018-08-09T15:06:38.746Z,100034.38
2018-08-09T15:09:09.934Z,100033.34
2018-08-09T15:11:38.721Z,100022.11
2018-08-09T15:14:08.853Z,100005.12
2018-08-09T15:16:37.659Z,100003.13
2018-08-09T15:19:06.545Z,100010.27
2018-08-09T15:21:35.489Z,100000.22
2018-08-09T15:24:04.445Z,99980.65
2018-08-09T15:26:33.267Z,99990.28
2018-08-09T15:29:02.103Z,99995.80
2018-08-09T15:31:30.898Z,99989.73
2018-08-09T15:33:59.849Z,99994.97
2018-08-09T15:36:28.734Z,99969.16
2018-08-09T15:38:57.526Z,99970.36
2018-08-09T15:41:26.316Z,99962.48
2018-08-09T15:43:55.212Z,99969.69
2018-08-09T15:46:24.028Z,99960.66
2018-08-09T15:48:53.330Z,99968.97
2018-08-09T15:51:22.064Z,99964.92
2018-08-09T15:53:50.876Z,99956.97
2018-08-09T15:56:19.658Z,99946.28
2018-08-09T15:58:48.474Z,99956.67
2018-08-09T16:01:17.206Z,99958.17
2018-08-09T16:03:46.169Z,99944.05
2018-08-09T16:06:14.969Z,99942.55
2018-08-09T16:08:43.765Z,99928.69
2018-08-09T16:11:12.589Z,99936.80
2018-08-09T16:13:41.501Z,99925.48
2018-08-09T16:16:10.428Z,99949.63
2018-08-09T16:18:39.144Z,99939.97
2018-08-09T16:21:08.017Z,99942.03
2018-08-09T16:23:36.830Z,99948.94
2018-08-09T16:26:05.643Z,99955.91
2018-08-09T16:28:34.498Z,99951.81
2018-08-09T16:31:03.453Z,99958.27
2018-08-09T16:33:32.303Z,99941.50
2018-08-09T16:36:01.115Z,99945.55
2018-08-09T16:38:29.896Z,99950.16
2018-08-09T16:40:58.829Z,99943.23
2018-08-09T16:43:27.749Z,99938.52
2018-08-09T16:45:56.781Z,99928.08
2018-08-09T16:48:25.661Z,99936.67
2018-08-09T16:50:54.503Z,99926.58
2018-08-09T16:53:23.281Z,99934.48
2018-08-09T16:55:52.119Z,99939.45
2018-08-09T16:58:20.860Z,99934.16
2018-08-09T17:00:49.740Z,99934.30
2018-08-09T17:03:18.551Z,99939.87
2018-08-09T17:05:47.481Z,99941.51
2018-08-09T17:08:19.806Z,99949.39
2018-08-09T17:10:48.768Z,99948.37
2018-08-09T17:13:18.667Z,99951.52
2018-08-09T17:15:47.590Z,99940.97
2018-08-09T17:18:16.498Z,99948.89
2018-08-09T17:20:45.376Z,99947.80
2018-08-09T17:23:14.262Z,99945.50
2018-08-09T17:25:43.060Z,99947.15
2018-08-09T17:28:11.975Z,99965.17
2018-08-09T17:30:40.885Z,99964.11
2018-08-09T17:33:09.811Z,99970.37
2018-08-09T17:35:38.643Z,99971.98
2018-08-09T17:38:08.161Z,99985.00
2018-08-09T17:40:37.284Z,99972.02
2018-08-09T17:43:06.175Z,99972.34
2018-08-09T17:45:35.806Z,99972.12
2018-08-09T17:48:08.494Z,99984.63
2018-08-09T17:50:37.418Z,99985.30
2018-08-09T17:53:07.534Z,99993.05
2018-08-09T17:55:36.422Z,99987.58
2018-08-09T17:58:05.470Z,99980.11
2018-08-09T18:00:35.561Z,99985.41
2018-08-09T18:03:04.514Z,99986.56
2018-08-09T18:05:33.519Z,99987.50
2018-08-09T18:08:02.438Z,99988.09
2018-08-09T18:10:33.956Z,99983.28
2018-08-09T18:13:02.788Z,99987.48
2018-08-09T18:15:32.228Z,99984.47
2018-08-09T18:18:02.006Z,99986.88
2018-08-09T18:20:33.446Z,99978.55
2018-08-09T18:23:02.342Z,99991.66
2018-08-09T18:25:31.400Z,99997.20
2018-08-09T18:28:00.337Z,99994.69
2018-08-09T18:30:29.302Z,99998.34
2018-08-09T18:32:58.328Z,99998.20
2018-08-09T18:35:27.198Z,100001.41
2018-08-09T18:37:56.170Z,100000.12
2018-08-09T18:40:26.858Z,99995.59
2018-08-09T18:42:55.763Z,99997.59
2018-08-09T18:45:24.761Z,100001.70
2018-08-09T18:47:53.761Z,100015.31
2018-08-09T18:50:29.868Z,100025.94
2018-08-09T18:52:58.841Z,100037.30
2018-08-09T18:55:27.755Z,100057.97
2018-08-09T18:57:56.630Z,100069.92
2018-08-09T19:00:27.323Z,100082.94
2018-08-09T19:02:56.335Z,100092.58
2018-08-09T19:05:25.427Z,100093.15
2018-08-09T19:07:54.384Z,100104.56
2018-08-09T19:10:24.913Z,100114.41
2018-08-09T19:12:53.799Z,100127.48
2018-08-09T19:15:22.585Z,100131.91
2018-08-09T19:20:28.333Z,100149.53
2018-08-09T19:22:57.721Z,100155.68
2018-08-09T19:25:26.573Z,100153.53
2018-08-09T19:27:55.473Z,100152.83
2018-08-09T19:30:26.017Z,100163.19
2018-08-09T19:32:55.003Z,100172.87
2018-08-09T19:35:24.141Z,100166.88
2018-08-09T19:37:52.961Z,100168.23
2018-08-09T19:40:25.549Z,100190.75
2018-08-09T19:42:54.497Z,100172.19
2018-08-09T19:45:23.337Z,100199.20
2018-08-09T19:47:52.160Z,100186.66
2018-08-09T19:50:22.369Z,100192.38
2018-08-09T19:52:51.249Z,100202.59
2018-08-09T19:55:21.727Z,100215.12
2018-08-09T19:57:51.200Z,100208.34
2018-08-09T20:00:21.665Z,100217.96
2018-08-09T20:02:50.827Z,100219.11
2018-08-09T20:05:19.681Z,100223.77
2018-08-09T20:07:48.555Z,100225.16
2018-08-09T20:10:17.500Z,100213.23
2018-08-09T20:12:47.181Z,100219.77
2018-08-09T20:15:18.268Z,100233.37
2018-08-09T20:17:47.199Z,100241.41
2018-08-09T20:20:17.476Z,100249.92
2018-08-09T20:22:46.250Z,100248.27
2018-08-09T20:25:15.591Z,100254.17
2018-08-09T20:27:45.229Z,100266.80
2018-08-09T20:30:16.009Z,100251.22
2018-08-09T20:32:45.721Z,100246.34
2018-08-09T20:35:18.853Z,100241.03
2018-08-09T20:37:48.291Z,100262.27
2018-08-09T20:40:17.925Z,100265.21
2018-08-09T20:42:48.006Z,100260.80
2018-08-09T20:45:18.395Z,100268.10
2018-08-09T20:47:47.191Z,100264.84
2018-08-09T20:50:18.342Z,100255.00
2018-08-09T20:52:47.867Z,100276.49
2018-08-09T20:55:16.774Z,100274.39
2018-08-09T20:57:46.416Z,100281.50
2018-08-09T21:00:18.338Z,100294.15
2018-08-09T21:02:48.670Z,100286.94
2018-08-09T21:05:23.475Z,100292.09
2018-08-09T21:07:53.527Z,100306.04
2018-08-09T21:10:22.743Z,100297.55
2018-08-09T21:12:51.559Z,100298.26
2018-08-09T21:15:20.987Z,100296.59
2018-08-09T21:17:49.852Z,100299.37
2018-08-09T21:20:18.745Z,100305.73
2018-08-09T21:22:48.500Z,100290.01
2018-08-09T21:25:17.520Z,100305.05
2018-08-09T21:27:47.005Z,100307.81
2018-08-09T21:30:18.246Z,100313.57
2018-08-09T21:32:47.560Z,100312.25
2018-08-09T21:35:16.358Z,100307.10
2018-08-09T21:37:45.494Z,100311.37
2018-08-09T21:40:15.209Z,100324.40
2018-08-09T21:42:44.125Z,100327.06
2018-08-09T21:45:16.351Z,100323.81
2018-08-09T21:47:45.111Z,100342.55
2018-08-09T21:50:16.200Z,100329.17
2018-08-09T21:52:45.078Z,100329.98
2018-08-09T21:55:14.604Z,100346.03
2018-08-09T21:57:44.557Z,100352.31
2018-08-09T22:00:22.099Z,100358.28
2018-08-09T22:02:51.160Z,100379.25
2018-08-09T22:06:25.000Z,100394.78
2018-08-09T22:08:58.982Z,100409.07
2018-08-09T22:11:32.961Z,100411.22
2018-08-09T22:15:09.756Z,100414.34
2018-08-09T22:17:43.739Z,100418.22
2018-08-09T22:20:17.748Z,100441.31
2018-08-09T22:22:46.674Z,100440.81
2018-08-09T22:25:15.485Z,100448.16
2018-08-09T22:27:44.332Z,100445.74
2018-08-09T22:30:15.629Z,100454.70
2018-08-09T22:32:44.460Z,100466.67
2018-08-09T22:35:13.217Z,100474.02
2018-08-09T22:37:41.939Z,100479.18
2018-08-09T22:40:10.877Z,100488.14
2018-08-09T22:42:39.697Z,100493.04
2018-08-09T22:45:08.617Z,100506.62
2018-08-09T22:47:37.360Z,100506.38
2018-08-09T22:50:06.157Z,100511.52
2018-08-09T22:52:34.921Z,100513.95
2018-08-09T22:55:03.856Z,100512.88
2018-08-09T22:57:32.557Z,100521.03
2018-08-09T23:00:01.356Z,100529.98
2018-08-09T23:02:30.173Z,100532.13
2018-08-09T23:04:58.866Z,100534.84
2018-08-09T23:07:27.785Z,100529.13
2018-08-09T23:09:56.541Z,100541.63
2018-08-09T23:12:25.359Z,100548.02
2018-08-09T23:14:54.064Z,100540.91
2018-08-09T23:17:22.840Z,100544.47
2018-08-09T23:19:51.514Z,100552.92
2018-08-09T23:22:20.337Z,100567.58
2018-08-09T23:24:49.047Z,100568.16
2018-08-09T23:27:17.729Z,100567.90
2018-08-09T23:29:46.598Z,100576.84
2018-08-09T23:32:15.440Z,100587.41
2018-08-09T23:34:44.294Z,100586.00
2018-08-09T23:37:13.142Z,100602.84
2018-08-09T23:39:41.917Z,100607.41
2018-08-09T23:42:10.707Z,100606.58
2018-08-09T23:44:39.369Z,100608.89
2018-08-09T23:47:08.233Z,100612.48
2018-08-09T23:49:36.972Z,100614.73
2018-08-09T23:52:05.977Z,100630.59
2018-08-09T23:54:34.995Z,100628.97
2018-08-09T23:57:03.707Z,100640.48
2018-08-09T23:59:32.513Z,100649.30
